Time;durP1;ratioP1;P1;durP2;ratioP2;P2;SDS_P1;SDS_P2;PMS_P1;PMS_P2;Temp;Humidity;BMP_temperature;BMP_pressure;BME280_temperature;BME280_humidity;BME280_pressure;Samples;Min_cycle;Max_cycle;Signal;HPM_P1;HPM_P2
2022/07/11 00:00:47;;;;;;;4.10;1.42;;;;;;;;;;5011699;28;20030;-73
2022/07/11 00:03:12;;;;;;;4.20;1.42;;;;;;;;;;5011933;28;20030;-74
2022/07/11 00:05:38;;;;;;;7.07;1.30;;;;;;;;;;5011324;28;20061;-75
2022/07/11 00:08:06;;;;;;;4.20;1.60;;;;;;;;;;5012969;28;20021;-74
2022/07/11 00:10:32;;;;;;;5.72;1.80;;;;;;;;;;5011186;28;20029;-74
2022/07/11 00:12:59;;;;;;;5.10;1.52;;;;;;;;;;5012776;28;20030;-73
2022/07/11 00:15:24;;;;;;;5.80;1.50;;;;;;;;;;5012536;28;20045;-73
2022/07/11 00:17:50;;;;;;;9.80;1.55;;;;;;;;;;5012589;28;20095;-75
2022/07/11 00:20:15;;;;;;;4.80;1.65;;;;;;;;;;5027202;28;20040;-73
2022/07/11 00:22:41;;;;;;;4.30;1.30;;;;;;;;;;5012784;28;20014;-74
2022/07/11 00:25:07;;;;;;;3.40;1.60;;;;;;;;;;5012654;28;20026;-73
2022/07/11 00:27:33;;;;;;;6.38;1.70;;;;;;;;;;5012206;28;20509;-73
2022/07/11 00:29:58;;;;;;;4.15;2.42;;;;;;;;;;5011116;28;20164;-75
2022/07/11 00:32:24;;;;;;;1.98;1.38;;;;;;;;;;5011669;28;20022;-74
2022/07/11 00:34:49;;;;;;;2.85;1.02;;;;;;;;;;5010840;28;20032;-74
2022/07/11 00:37:15;;;;;;;2.05;1.38;;;;;;;;;;5011941;28;20489;-75
2022/07/11 00:39:40;;;;;;;1.73;1.20;;;;;;;;;;5011262;28;20026;-74
2022/07/11 00:42:06;;;;;;;2.55;1.50;;;;;;;;;;5011139;28;20466;-74
2022/07/11 00:44:31;;;;;;;3.55;1.65;;;;;;;;;;5012126;28;20045;-74
2022/07/11 00:46:57;;;;;;;1.35;0.90;;;;;;;;;;5010532;28;20033;-74
2022/07/11 00:49:22;;;;;;;3.55;1.17;;;;;;;;;;5010638;28;20065;-74
2022/07/11 00:51:49;;;;;;;8.52;1.38;;;;;;;;;;5010648;28;20108;-73
2022/07/11 00:54:18;;;;;;;5.32;1.48;;;;;;;;;;5010472;28;20037;-74
2022/07/11 00:56:44;;;;;;;8.85;1.38;;;;;;;;;;5011888;28;20030;-74
2022/07/11 00:59:09;;;;;;;5.13;1.35;;;;;;;;;;5010708;28;20026;-74
2022/07/11 01:01:37;;;;;;;4.25;1.55;;;;;;;;;;5010284;28;20065;-74
2022/07/11 01:04:03;;;;;;;7.60;1.65;;;;;;;;;;5011896;28;20497;-74
2022/07/11 01:06:29;;;;;;;2.35;1.20;;;;;;;;;;5010186;28;20105;-74
2022/07/11 01:08:54;;;;;;;3.67;1.35;;;;;;;;;;5011503;28;20402;-74
2022/07/11 01:11:20;;;;;;;3.72;1.70;;;;;;;;;;5010065;28;20029;-74
2022/07/11 01:13:46;;;;;;;4.18;1.63;;;;;;;;;;5010298;28;20121;-74
2022/07/11 01:16:22;;;;;;;3.28;1.20;;;;;;;;;;5010392;28;20422;-74
2022/07/11 01:18:52;;;;;;;8.95;1.40;;;;;;;;;;5010157;28;20112;-74
2022/07/11 01:21:19;;;;;;;1.98;1.40;;;;;;;;;;5009909;28;20075;-74
2022/07/11 01:23:50;;;;;;;2.60;1.30;;;;;;;;;;5011657;28;20382;-74
2022/07/11 01:26:16;;;;;;;2.40;1.35;;;;;;;;;;5009701;28;20050;-75
2022/07/11 01:28:42;;;;;;;3.53;1.30;;;;;;;;;;5010135;28;20014;-75
2022/07/11 01:31:08;;;;;;;3.90;1.40;;;;;;;;;;5012778;28;20034;-73
2022/07/11 01:33:33;;;;;;;2.08;1.30;;;;;;;;;;5014700;28;20029;-73
2022/07/11 01:36:02;;;;;;;5.70;1.42;;;;;;;;;;5014188;28;20061;-73
2022/07/11 01:38:28;;;;;;;2.08;1.30;;;;;;;;;;5015621;28;20014;-73
2022/07/11 01:40:54;;;;;;;4.40;1.80;;;;;;;;;;4993777;28;20565;-74
2022/07/11 01:43:19;;;;;;;5.45;1.42;;;;;;;;;;5009635;28;20041;-74
2022/07/11 01:45:45;;;;;;;5.93;1.48;;;;;;;;;;5010295;28;20022;-74
2022/07/11 01:48:10;;;;;;;2.72;1.35;;;;;;;;;;5009892;28;20026;-75
2022/07/11 01:50:36;;;;;;;2.50;1.48;;;;;;;;;;5009507;28;20022;-74
2022/07/11 01:53:02;;;;;;;8.68;1.67;;;;;;;;;;5010723;28;20037;-73
2022/07/11 01:55:28;;;;;;;23.60;4.40;;;;;;;;;;5010574;28;20363;-74
2022/07/11 01:57:53;;;;;;;2.08;1.40;;;;;;;;;;4993086;28;20030;-74
2022/07/11 02:00:19;;;;;;;7.47;1.38;;;;;;;;;;5010843;28;20064;-74
2022/07/11 02:02:44;;;;;;;5.47;2.05;;;;;;;;;;5009287;28;20545;-74
2022/07/11 02:05:10;;;;;;;4.90;1.60;;;;;;;;;;5010638;28;20368;-74
2022/07/11 02:10:19;;;;;;;7.97;1.83;;;;;;;;;;5010399;28;20108;-74
2022/07/11 02:12:44;;;;;;;4.38;1.40;;;;;;;;;;5009075;28;20112;-74
2022/07/11 02:15:10;;;;;;;2.83;1.80;;;;;;;;;;5010633;28;20030;-74
2022/07/11 02:17:35;;;;;;;4.28;1.63;;;;;;;;;;5008803;28;20033;-74
2022/07/11 02:20:01;;;;;;;7.35;1.90;;;;;;;;;;5009064;28;20040;-74
2022/07/11 02:22:28;;;;;;;3.42;1.33;;;;;;;;;;5010017;28;20382;-74
2022/07/11 02:24:54;;;;;;;5.45;1.92;;;;;;;;;;5010290;28;20100;-74
2022/07/11 02:27:19;;;;;;;4.10;1.23;;;;;;;;;;5008612;28;20048;-76
2022/07/11 02:29:45;;;;;;;8.93;1.98;;;;;;;;;;5009171;28;20044;-74
2022/07/11 02:32:10;;;;;;;7.35;2.47;;;;;;;;;;5008742;28;20342;-74
2022/07/11 02:34:36;;;;;;;13.13;2.50;;;;;;;;;;5008743;28;20030;-74
2022/07/11 02:37:01;;;;;;;1.92;1.70;;;;;;;;;;5008740;28;20474;-73
2022/07/11 02:39:27;;;;;;;3.45;1.77;;;;;;;;;;5025269;28;20083;-73
2022/07/11 02:41:52;;;;;;;8.10;1.85;;;;;;;;;;5009111;28;20034;-73
2022/07/11 02:44:19;;;;;;;4.18;1.98;;;;;;;;;;5009088;28;20033;-74
2022/07/11 02:46:45;;;;;;;3.35;1.48;;;;;;;;;;5010333;28;20386;-73
2022/07/11 02:49:10;;;;;;;4.25;2.10;;;;;;;;;;5008657;28;20125;-74
2022/07/11 02:51:36;;;;;;;3.55;1.30;;;;;;;;;;5008436;28;20026;-73
2022/07/11 02:54:01;;;;;;;4.57;1.77;;;;;;;;;;5009846;28;20091;-73
2022/07/11 02:56:27;;;;;;;3.78;1.98;;;;;;;;;;5007643;28;20545;-73
2022/07/11 02:58:52;;;;;;;5.72;1.52;;;;;;;;;;5009657;28;20032;-73
2022/07/11 03:01:19;;;;;;;5.05;1.83;;;;;;;;;;5010032;28;20033;-73
2022/07/11 03:03:45;;;;;;;4.00;1.80;;;;;;;;;;5008518;28;20470;-73
2022/07/11 03:06:11;;;;;;;5.55;1.70;;;;;;;;;;5025351;28;20038;-74
2022/07/11 03:08:37;;;;;;;8.65;2.00;;;;;;;;;;5009411;28;20029;-73
2022/07/11 03:11:03;;;;;;;4.35;1.88;;;;;;;;;;5008354;28;20036;-73
2022/07/11 03:13:28;;;;;;;8.48;3.25;;;;;;;;;;5009360;28;20034;-74
2022/07/11 03:15:53;;;;;;;4.85;1.88;;;;;;;;;;5008473;28;20345;-73
2022/07/11 03:18:19;;;;;;;3.38;1.70;;;;;;;;;;5009591;28;20087;-73
2022/07/11 03:20:46;;;;;;;10.40;2.05;;;;;;;;;;5008193;28;20398;-73
2022/07/11 03:23:11;;;;;;;4.25;1.48;;;;;;;;;;5009496;28;20120;-74
2022/07/11 03:25:37;;;;;;;6.30;1.70;;;;;;;;;;5008128;28;20145;-74
2022/07/11 03:28:02;;;;;;;3.10;1.90;;;;;;;;;;5008178;28;20036;-75
2022/07/11 03:30:28;;;;;;;4.85;1.67;;;;;;;;;;5008281;28;20060;-73
2022/07/11 03:32:53;;;;;;;1.67;1.58;;;;;;;;;;5009625;28;20055;-74
2022/07/11 03:38:03;;;;;;;6.95;2.30;;;;;;;;;;5009849;28;20072;-74
2022/07/11 03:40:28;;;;;;;4.20;1.70;;;;;;;;;;5007971;28;20069;-73
2022/07/11 03:42:54;;;;;;;4.43;1.88;;;;;;;;;;5024463;28;20040;-74
2022/07/11 03:45:19;;;;;;;2.63;1.77;;;;;;;;;;5009591;28;20076;-74
2022/07/11 03:47:47;;;;;;;9.25;2.33;;;;;;;;;;5007687;28;20026;-74
2022/07/11 03:50:12;;;;;;;6.82;2.28;;;;;;;;;;5008180;28;20034;-74
2022/07/11 03:52:39;;;;;;;8.07;2.35;;;;;;;;;;5009290;28;20179;-74
2022/07/11 03:55:05;;;;;;;6.15;2.00;;;;;;;;;;5008331;28;20396;-74
2022/07/11 03:57:30;;;;;;;7.63;2.50;;;;;;;;;;5007635;28;20026;-74
2022/07/11 03:59:56;;;;;;;4.65;2.10;;;;;;;;;;5007983;28;20030;-74
2022/07/11 04:02:21;;;;;;;4.18;2.40;;;;;;;;;;5024340;28;20053;-75
2022/07/11 04:04:47;;;;;;;2.25;1.70;;;;;;;;;;5009029;28;20030;-74
2022/07/11 04:07:13;;;;;;;4.15;1.77;;;;;;;;;;5010489;28;20041;-76
2022/07/11 04:09:38;;;;;;;2.38;2.17;;;;;;;;;;5012489;28;20041;-73
2022/07/11 04:12:04;;;;;;;8.43;2.42;;;;;;;;;;5012999;28;20120;-76
2022/07/11 04:14:30;;;;;;;7.22;2.60;;;;;;;;;;5012687;28;20022;-74
2022/07/11 04:16:55;;;;;;;3.67;2.22;;;;;;;;;;5012725;28;20359;-74
2022/07/11 04:19:21;;;;;;;5.45;2.90;;;;;;;;;;5010983;28;20474;-75
2022/07/11 04:21:46;;;;;;;27.42;4.03;;;;;;;;;;5012196;28;20076;-74
2022/07/11 04:24:11;;;;;;;4.43;2.53;;;;;;;;;;5012398;28;20076;-74
2022/07/11 04:26:37;;;;;;;3.85;2.47;;;;;;;;;;5011922;28;20042;-74
2022/07/11 04:29:02;;;;;;;3.03;2.60;;;;;;;;;;5010937;28;20033;-74
2022/07/11 04:31:28;;;;;;;5.90;3.17;;;;;;;;;;5010849;28;20478;-74
2022/07/11 04:33:53;;;;;;;4.60;2.92;;;;;;;;;;5010914;28;20026;-72
2022/07/11 04:36:19;;;;;;;6.97;2.92;;;;;;;;;;5012442;28;20100;-73
2022/07/11 04:38:44;;;;;;;6.45;3.20;;;;;;;;;;5011628;28;20021;-73
2022/07/11 04:41:10;;;;;;;9.20;2.85;;;;;;;;;;5010811;28;20553;-73
2022/07/11 04:43:37;;;;;;;7.32;3.00;;;;;;;;;;5011733;28;20021;-74
2022/07/11 04:46:04;;;;;;;8.23;3.40;;;;;;;;;;5012001;28;20049;-74
2022/07/11 04:48:30;;;;;;;10.98;3.05;;;;;;;;;;5011517;28;20018;-74
2022/07/11 04:50:58;;;;;;;5.30;2.85;;;;;;;;;;5010582;28;20029;-74
2022/07/11 04:53:24;;;;;;;4.28;3.08;;;;;;;;;;5010656;28;20509;-74
2022/07/11 04:55:49;;;;;;;5.85;3.38;;;;;;;;;;5009185;28;20021;-72
2022/07/11 04:58:15;;;;;;;5.45;2.92;;;;;;;;;;5020360;28;20022;-74
2022/07/11 05:00:40;;;;;;;7.38;3.45;;;;;;;;;;5024234;28;20382;-73
2022/07/11 05:03:06;;;;;;;6.10;3.33;;;;;;;;;;5020885;28;20030;-73
2022/07/11 05:05:31;;;;;;;6.32;3.65;;;;;;;;;;5025596;28;20115;-73
2022/07/11 05:07:58;;;;;;;8.18;3.40;;;;;;;;;;5008042;28;20030;-76
2022/07/11 05:10:25;;;;;;;3.78;3.38;;;;;;;;;;5001325;28;20030;-73
2022/07/11 05:12:50;;;;;;;5.70;3.55;;;;;;;;;;4995352;28;20171;-75
2022/07/11 05:15:18;;;;;;;9.05;4.05;;;;;;;;;;5004471;28;20026;-75
2022/07/11 05:17:43;;;;;;;6.93;3.42;;;;;;;;;;5008444;28;20033;-76
2022/07/11 05:20:09;;;;;;;5.45;3.63;;;;;;;;;;5008850;28;20029;-74
2022/07/11 05:22:36;;;;;;;9.98;3.65;;;;;;;;;;5005726;28;20026;-74
2022/07/11 05:25:02;;;;;;;2.85;2.65;;;;;;;;;;5003555;28;20038;-73
2022/07/11 05:27:27;;;;;;;4.82;3.38;;;;;;;;;;5023158;28;20556;-73
2022/07/11 05:29:53;;;;;;;6.38;3.00;;;;;;;;;;5011852;28;20033;-73
2022/07/11 05:32:18;;;;;;;6.60;3.63;;;;;;;;;;5008189;28;20033;-73
2022/07/11 05:34:44;;;;;;;8.15;3.45;;;;;;;;;;5011237;28;20029;-76
2022/07/11 05:37:09;;;;;;;11.80;4.13;;;;;;;;;;5021088;28;20030;-74
2022/07/11 05:39:34;;;;;;;8.88;3.20;;;;;;;;;;5006879;28;20033;-73
2022/07/11 05:42:00;;;;;;;7.60;3.15;;;;;;;;;;5014960;28;20060;-73
2022/07/11 05:44:26;;;;;;;6.07;3.47;;;;;;;;;;5009385;28;20700;-76
2022/07/11 05:46:51;;;;;;;8.68;3.72;;;;;;;;;;5002687;28;20026;-76
2022/07/11 05:49:17;;;;;;;9.18;4.00;;;;;;;;;;4989247;28;21809;-74
2022/07/11 05:51:42;;;;;;;12.00;4.45;;;;;;;;;;4988039;28;20034;-74
2022/07/11 05:54:08;;;;;;;7.13;3.80;;;;;;;;;;4998569;28;20030;-74
2022/07/11 05:56:33;;;;;;;5.25;3.25;;;;;;;;;;5000320;28;20622;-74
2022/07/11 05:58:59;;;;;;;5.32;3.50;;;;;;;;;;5000509;28;20045;-74
2022/07/11 06:01:26;;;;;;;12.63;3.85;;;;;;;;;;5002954;28;20370;-75
2022/07/11 06:03:52;;;;;;;3.80;3.05;;;;;;;;;;4997343;28;20060;-73
2022/07/11 06:06:18;;;;;;;10.07;3.38;;;;;;;;;;4997349;28;20068;-76
2022/07/11 06:08:49;;;;;;;7.90;3.97;;;;;;;;;;5013868;28;20148;-74
2022/07/11 06:11:15;;;;;;;7.93;3.15;;;;;;;;;;4991666;28;20041;-76
2022/07/11 06:13:48;;;;;;;3.55;3.00;;;;;;;;;;4994888;28;20041;-76
2022/07/11 06:16:14;;;;;;;8.10;3.40;;;;;;;;;;5008118;28;20040;-75
2022/07/11 06:18:39;;;;;;;8.55;3.75;;;;;;;;;;5014489;28;20030;-74
2022/07/11 06:21:05;;;;;;;6.05;3.15;;;;;;;;;;4995352;28;20042;-75
2022/07/11 06:23:31;;;;;;;11.57;3.15;;;;;;;;;;5008039;28;20026;-75
2022/07/11 06:25:57;;;;;;;8.07;2.92;;;;;;;;;;4977523;28;20633;-75
2022/07/11 06:28:23;;;;;;;6.45;3.10;;;;;;;;;;4998693;28;20026;-75
2022/07/11 06:30:49;;;;;;;15.65;3.45;;;;;;;;;;5001548;28;20033;-74
2022/07/11 06:33:16;;;;;;;5.97;3.00;;;;;;;;;;5007650;28;20026;-75
2022/07/11 06:35:44;;;;;;;5.93;2.83;;;;;;;;;;5021691;28;20045;-74
2022/07/11 06:38:10;;;;;;;11.30;3.20;;;;;;;;;;5007850;28;20030;-73
2022/07/11 06:40:36;;;;;;;5.13;3.15;;;;;;;;;;4999923;28;20095;-75
2022/07/11 06:43:02;;;;;;;8.50;3.00;;;;;;;;;;4995107;28;20033;-72
2022/07/11 06:45:27;;;;;;;3.25;2.90;;;;;;;;;;5004215;28;20707;-78
2022/07/11 06:47:53;;;;;;;6.15;2.92;;;;;;;;;;5001220;28;20033;-79
2022/07/11 06:50:19;;;;;;;10.40;3.15;;;;;;;;;;4998967;28;20110;-78
2022/07/11 06:52:48;;;;;;;6.03;3.10;;;;;;;;;;5010945;28;20049;-74
2022/07/11 06:55:15;;;;;;;9.02;3.45;;;;;;;;;;5001351;28;20042;-77
2022/07/11 06:57:41;;;;;;;6.90;2.90;;;;;;;;;;4996816;28;20900;-75
2022/07/11 07:00:11;;;;;;;7.25;3.20;;;;;;;;;;4995077;28;20052;-76
2022/07/11 07:02:38;;;;;;;12.55;4.00;;;;;;;;;;4997399;28;20029;-76
2022/07/11 07:05:15;;;;;;;4.13;2.53;;;;;;;;;;4987152;28;20048;-74
2022/07/11 07:07:42;;;;;;;5.43;2.60;;;;;;;;;;4993030;28;20120;-73
2022/07/11 07:10:09;;;;;;;7.72;2.60;;;;;;;;;;4996215;28;20043;-77
2022/07/11 07:12:39;;;;;;;10.95;2.35;;;;;;;;;;4969437;28;20046;-73
2022/07/11 07:15:06;;;;;;;5.10;2.20;;;;;;;;;;4997303;28;20038;-76
2022/07/11 07:17:33;;;;;;;10.20;3.72;;;;;;;;;;5001677;28;20036;-75
2022/07/11 07:19:59;;;;;;;8.02;2.50;;;;;;;;;;4996864;28;20910;-72
2022/07/11 07:22:24;;;;;;;7.05;2.72;;;;;;;;;;4991830;28;20164;-74
2022/07/11 07:24:50;;;;;;;4.65;2.50;;;;;;;;;;5000472;28;20026;-76
2022/07/11 07:27:15;;;;;;;6.47;2.80;;;;;;;;;;5002127;28;20054;-73
2022/07/11 07:29:41;;;;;;;12.48;3.28;;;;;;;;;;4994515;28;20099;-74
2022/07/11 07:32:07;;;;;;;5.32;2.08;;;;;;;;;;4983696;28;20040;-73
2022/07/11 07:34:32;;;;;;;10.63;2.78;;;;;;;;;;4992567;28;20510;-76
2022/07/11 07:36:59;;;;;;;4.70;2.00;;;;;;;;;;4994044;28;20040;-73
2022/07/11 07:39:26;;;;;;;8.88;1.80;;;;;;;;;;4995162;28;20085;-74
2022/07/11 07:41:53;;;;;;;8.25;1.83;;;;;;;;;;4991713;28;20029;-73
2022/07/11 07:44:22;;;;;;;3.28;1.70;;;;;;;;;;4999373;28;20087;-72
2022/07/11 07:46:47;;;;;;;6.78;1.88;;;;;;;;;;4995576;28;20457;-73
2022/07/11 07:49:13;;;;;;;6.47;1.67;;;;;;;;;;5002215;28;20029;-74
2022/07/11 07:51:39;;;;;;;3.13;1.40;;;;;;;;;;5012209;28;20033;-76
2022/07/11 07:54:04;;;;;;;4.97;1.67;;;;;;;;;;4995948;28;20120;-74
2022/07/11 07:56:30;;;;;;;10.27;1.70;;;;;;;;;;4986988;28;20029;-71
2022/07/11 07:58:56;;;;;;;3.67;1.60;;;;;;;;;;5000720;28;20046;-74
2022/07/11 08:01:34;;;;;;;6.43;1.60;;;;;;;;;;5000965;28;20056;-74
2022/07/11 08:04:04;;;;;;;2.60;1.33;;;;;;;;;;4987618;28;20897;-73
2022/07/11 08:06:31;;;;;;;9.63;2.38;;;;;;;;;;4999973;28;20030;-73
2022/07/11 08:08:58;;;;;;;4.82;1.92;;;;;;;;;;4999054;28;20115;-73
2022/07/11 08:11:24;;;;;;;9.07;2.30;;;;;;;;;;4998948;28;20022;-73
2022/07/11 08:13:50;;;;;;;6.25;2.00;;;;;;;;;;4995873;28;20038;-73
2022/07/11 08:16:15;;;;;;;4.82;2.15;;;;;;;;;;4997965;28;20036;-73
2022/07/11 08:18:41;;;;;;;4.05;2.13;;;;;;;;;;4998532;28;20099;-74
2022/07/11 08:21:07;;;;;;;7.95;2.47;;;;;;;;;;5005732;28;20561;-73
2022/07/11 08:23:32;;;;;;;6.00;2.15;;;;;;;;;;4996672;28;20390;-73
2022/07/11 08:25:58;;;;;;;11.60;2.83;;;;;;;;;;4996721;28;20120;-73
2022/07/11 08:28:23;;;;;;;5.70;2.15;;;;;;;;;;5000710;28;20059;-73
2022/07/11 08:30:49;;;;;;;6.45;2.10;;;;;;;;;;4998961;28;20026;-73
2022/07/11 08:33:14;;;;;;;9.13;2.20;;;;;;;;;;4996394;28;20042;-74
2022/07/11 08:35:40;;;;;;;12.35;3.65;;;;;;;;;;5012947;28;20038;-73
2022/07/11 08:38:05;;;;;;;4.60;2.10;;;;;;;;;;5016842;28;20470;-74
2022/07/11 08:40:31;;;;;;;8.70;2.38;;;;;;;;;;5011838;28;20040;-73
2022/07/11 08:43:00;;;;;;;2.90;2.45;;;;;;;;;;5011292;28;20489;-73
2022/07/11 08:45:30;;;;;;;5.03;2.28;;;;;;;;;;5000156;28;20037;-72
2022/07/11 08:47:59;;;;;;;3.93;2.67;;;;;;;;;;4996674;28;20021;-73
2022/07/11 08:50:28;;;;;;;6.72;2.65;;;;;;;;;;4998520;28;20365;-74
2022/07/11 08:52:55;;;;;;;8.00;2.42;;;;;;;;;;5015730;28;20038;-74
2022/07/11 08:55:20;;;;;;;8.75;3.05;;;;;;;;;;5001079;28;20029;-74
2022/07/11 08:57:46;;;;;;;8.45;2.42;;;;;;;;;;5001483;28;20048;-74
2022/07/11 09:00:13;;;;;;;6.85;2.42;;;;;;;;;;4998354;28;20534;-74
2022/07/11 09:02:42;;;;;;;10.07;2.55;;;;;;;;;;4997118;28;20933;-73
2022/07/11 09:05:08;;;;;;;11.05;2.67;;;;;;;;;;5015610;28;20107;-75
2022/07/11 09:07:47;;;;;;;6.88;2.00;;;;;;;;;;5000538;28;20442;-74
2022/07/11 09:10:17;;;;;;;5.50;2.08;;;;;;;;;;5021153;28;20064;-74
2022/07/11 09:13:06;;;;;;;8.75;3.20;;;;;;;;;;4969770;28;20044;-76
2022/07/11 09:15:36;;;;;;;6.05;2.40;;;;;;;;;;4999069;28;20160;-74
2022/07/11 09:18:23;;;;;;;10.50;2.25;;;;;;;;;;5000441;28;20536;-73
2022/07/11 09:26:32;;;;;;;7.72;2.42;;;;;;;;;;5001517;28;20197;-73
2022/07/11 09:29:09;;;;;;;5.50;2.00;;;;;;;;;;5002519;28;20470;-75
2022/07/11 09:31:37;;;;;;;6.28;2.40;;;;;;;;;;5001233;28;20042;-73
2022/07/11 09:34:05;;;;;;;7.93;2.50;;;;;;;;;;5000277;28;20042;-73
2022/07/11 09:36:50;;;;;;;8.75;3.47;;;;;;;;;;5001432;28;20143;-73
2022/07/11 09:39:20;;;;;;;7.78;2.97;;;;;;;;;;4999698;28;20121;-73
2022/07/11 09:41:48;;;;;;;11.48;4.70;;;;;;;;;;4993503;28;20124;-74
2022/07/11 09:44:15;;;;;;;4.78;3.40;;;;;;;;;;4997637;28;20037;-75
2022/07/11 09:46:43;;;;;;;5.25;2.17;;;;;;;;;;5013503;28;20042;-73
2022/07/11 09:49:09;;;;;;;4.25;2.35;;;;;;;;;;4997215;28;20037;-73
2022/07/11 09:51:37;;;;;;;5.38;2.10;;;;;;;;;;4994645;28;20175;-74
2022/07/11 09:54:04;;;;;;;3.75;2.30;;;;;;;;;;4997123;28;21004;-74
2022/07/11 09:56:45;;;;;;;6.22;2.45;;;;;;;;;;4999168;28;20029;-73
2022/07/11 09:59:13;;;;;;;10.93;2.00;;;;;;;;;;4999385;28;20042;-74
2022/07/11 10:01:39;;;;;;;5.72;3.05;;;;;;;;;;5012226;28;20029;-76
2022/07/11 10:04:10;;;;;;;6.38;2.10;;;;;;;;;;4997022;28;20038;-73
2022/07/11 10:06:36;;;;;;;5.55;2.80;;;;;;;;;;4997191;28;20052;-74
2022/07/11 10:09:04;;;;;;;8.43;2.55;;;;;;;;;;5008790;28;20161;-73
2022/07/11 10:11:32;;;;;;;6.32;2.63;;;;;;;;;;5008853;28;20032;-74
2022/07/11 10:14:00;;;;;;;3.05;1.85;;;;;;;;;;4997588;28;20047;-75
2022/07/11 10:17:08;;;;;;;8.27;2.80;;;;;;;;;;5018421;28;20127;-76
2022/07/11 10:19:57;;;;;;;4.85;2.22;;;;;;;;;;4998309;28;20052;-75
2022/07/11 10:22:34;;;;;;;11.25;2.30;;;;;;;;;;4993033;28;20787;-74
2022/07/11 10:25:13;;;;;;;3.10;1.70;;;;;;;;;;5000517;28;20495;-75
2022/07/11 10:28:04;;;;;;;5.93;1.90;;;;;;;;;;4997752;28;20171;-75
2022/07/11 10:30:47;;;;;;;7.03;2.38;;;;;;;;;;4987827;28;20052;-75
2022/07/11 10:33:14;;;;;;;8.68;4.53;;;;;;;;;;5016117;28;20050;-74
2022/07/11 10:35:46;;;;;;;5.45;2.38;;;;;;;;;;4998592;28;20150;-74
2022/07/11 10:38:14;;;;;;;2.22;1.80;;;;;;;;;;4984059;28;20276;-74
2022/07/11 10:40:54;;;;;;;19.15;3.03;;;;;;;;;;4995390;28;20033;-74
2022/07/11 10:43:26;;;;;;;14.00;6.53;;;;;;;;;;4998888;28;20145;-74
2022/07/11 10:46:00;;;;;;;4.63;1.98;;;;;;;;;;4999115;28;20581;-74
2022/07/11 10:48:28;;;;;;;2.55;1.67;;;;;;;;;;4997976;28;20033;-74
2022/07/11 10:51:14;;;;;;;11.00;2.50;;;;;;;;;;4995621;28;20037;-74
2022/07/11 10:53:47;;;;;;;2.72;1.50;;;;;;;;;;5007429;28;20087;-74
2022/07/11 10:56:59;;;;;;;3.47;1.60;;;;;;;;;;4994576;28;20037;-73
2022/07/11 10:59:27;;;;;;;8.50;4.00;;;;;;;;;;4961189;28;20045;-73
2022/07/11 11:02:10;;;;;;;4.68;1.73;;;;;;;;;;4996829;28;20033;-74
2022/07/11 11:04:50;;;;;;;6.30;1.98;;;;;;;;;;4998789;28;20109;-73
2022/07/11 11:07:40;;;;;;;4.80;1.70;;;;;;;;;;4998509;28;20744;-74
2022/07/11 11:10:29;;;;;;;2.97;2.50;;;;;;;;;;4996412;28;20116;-74
2022/07/11 11:13:09;;;;;;;4.07;1.50;;;;;;;;;;4998068;28;20034;-73
2022/07/11 11:15:44;;;;;;;3.95;1.63;;;;;;;;;;4998413;28;20033;-75
2022/07/11 11:18:26;;;;;;;2.28;1.40;;;;;;;;;;5001591;28;20025;-74
2022/07/11 11:21:07;;;;;;;3.08;1.30;;;;;;;;;;4997547;28;20033;-76
2022/07/11 11:23:37;;;;;;;6.25;1.95;;;;;;;;;;5001210;28;20040;-73
2022/07/11 11:26:19;;;;;;;3.17;1.58;;;;;;;;;;5002229;28;20076;-74
2022/07/11 11:29:05;;;;;;;5.68;1.80;;;;;;;;;;5004952;28;22367;-74
2022/07/11 11:31:32;;;;;;;2.95;1.45;;;;;;;;;;5003300;28;20034;-74
2022/07/11 11:34:03;;;;;;;8.63;1.60;;;;;;;;;;5004377;28;20144;-73
2022/07/11 11:36:31;;;;;;;6.05;1.88;;;;;;;;;;4997990;28;20037;-73
2022/07/11 11:38:59;;;;;;;5.32;1.40;;;;;;;;;;5001576;28;20034;-74
2022/07/11 11:41:29;;;;;;;3.17;1.50;;;;;;;;;;5012213;28;20125;-73
2022/07/11 11:43:58;;;;;;;2.53;1.30;;;;;;;;;;5002132;28;20775;-73
2022/07/11 11:46:33;;;;;;;6.80;2.40;;;;;;;;;;4987315;28;20068;-73
2022/07/11 11:49:03;;;;;;;5.20;1.75;;;;;;;;;;5002878;28;20608;-73
2022/07/11 11:51:31;;;;;;;6.65;1.88;;;;;;;;;;5001070;28;20405;-74
2022/07/11 11:53:59;;;;;;;1.75;1.30;;;;;;;;;;5003842;28;20667;-72
2022/07/11 11:56:36;;;;;;;4.35;1.80;;;;;;;;;;5005704;28;20137;-75
2022/07/11 11:59:16;;;;;;;3.10;1.40;;;;;;;;;;5003216;28;20130;-73
2022/07/11 12:01:47;;;;;;;4.40;1.50;;;;;;;;;;5003211;28;20044;-73
2022/07/11 12:04:15;;;;;;;2.38;1.30;;;;;;;;;;5002565;28;20037;-74
2022/07/11 12:06:49;;;;;;;11.82;2.17;;;;;;;;;;5005633;28;20041;-74
2022/07/11 12:09:46;;;;;;;5.30;1.88;;;;;;;;;;5004761;28;20030;-73
2022/07/11 12:14:52;;;;;;;6.72;1.30;;;;;;;;;;5004049;28;20028;-74
2022/07/11 12:17:26;;;;;;;2.97;1.50;;;;;;;;;;5002546;28;20038;-75
2022/07/11 12:19:52;;;;;;;3.53;1.38;;;;;;;;;;5012664;28;20026;-74
2022/07/11 12:22:19;;;;;;;2.65;1.30;;;;;;;;;;4997740;28;20382;-74
2022/07/11 12:24:50;;;;;;;10.60;1.45;;;;;;;;;;5003528;28;20030;-76
2022/07/11 12:27:24;;;;;;;4.40;1.90;;;;;;;;;;4985810;28;20049;-76
2022/07/11 12:29:51;;;;;;;4.32;1.42;;;;;;;;;;5000195;28;20092;-74
2022/07/11 12:32:24;;;;;;;4.90;1.50;;;;;;;;;;5002258;28;20417;-74
2022/07/11 12:34:49;;;;;;;7.47;1.75;;;;;;;;;;5002307;28;20049;-75
2022/07/11 12:37:17;;;;;;;2.08;1.65;;;;;;;;;;5013120;28;20130;-76
2022/07/11 12:39:56;;;;;;;3.10;1.60;;;;;;;;;;4996807;28;20030;-74
2022/07/11 12:42:30;;;;;;;5.65;1.80;;;;;;;;;;4998701;28;20679;-75
2022/07/11 12:45:09;;;;;;;2.08;1.08;;;;;;;;;;4998768;28;20037;-75
2022/07/11 12:47:42;;;;;;;4.85;1.90;;;;;;;;;;4999912;28;20060;-75
2022/07/11 12:50:15;;;;;;;5.50;1.20;;;;;;;;;;5015495;28;20124;-76
2022/07/11 12:52:45;;;;;;;3.17;1.10;;;;;;;;;;5004482;28;20057;-75
2022/07/11 12:55:11;;;;;;;3.47;1.00;;;;;;;;;;5002362;28;20037;-76
2022/07/11 12:57:38;;;;;;;1.38;1.08;;;;;;;;;;5000665;28;20421;-75
2022/07/11 13:00:17;;;;;;;2.67;1.40;;;;;;;;;;5001531;28;20781;-76
2022/07/11 13:02:52;;;;;;;1.90;1.02;;;;;;;;;;4999876;28;20028;-74
2022/07/11 13:05:19;;;;;;;3.25;1.25;;;;;;;;;;4993356;28;20474;-75
2022/07/11 13:10:50;;;;;;;3.30;1.20;;;;;;;;;;5000874;28;20041;-74
2022/07/11 13:13:17;;;;;;;2.45;1.73;;;;;;;;;;5003807;28;20567;-76
2022/07/11 13:15:47;;;;;;;5.53;1.45;;;;;;;;;;5000629;28;20406;-76
2022/07/11 13:18:14;;;;;;;1.00;0.90;;;;;;;;;;5000411;28;20053;-75
2022/07/11 13:20:40;;;;;;;2.67;1.55;;;;;;;;;;4976393;28;20112;-76
2022/07/11 13:23:07;;;;;;;1.23;1.05;;;;;;;;;;4999924;28;20038;-75
2022/07/11 13:25:33;;;;;;;1.67;1.20;;;;;;;;;;5001230;28;20022;-76
2022/07/11 13:27:59;;;;;;;6.88;2.13;;;;;;;;;;5000494;28;20085;-76
2022/07/11 13:30:30;;;;;;;5.18;1.58;;;;;;;;;;5016988;28;20061;-75
2022/07/11 13:32:55;;;;;;;;;;;;;;;;;;4999803;28;20038;-76
2022/07/11 13:35:21;;;;;;;1.83;1.15;;;;;;;;;;5001671;28;19924;-75
2022/07/11 13:37:47;;;;;;;3.22;1.10;;;;;;;;;;4999316;28;20254;-75
2022/07/11 13:40:18;;;;;;;4.47;1.02;;;;;;;;;;4998712;28;20048;-75
2022/07/11 13:42:46;;;;;;;2.17;1.00;;;;;;;;;;4998760;28;20026;-75
2022/07/11 13:45:12;;;;;;;2.58;1.10;;;;;;;;;;5016077;28;20131;-75
2022/07/11 13:47:38;;;;;;;2.25;1.00;;;;;;;;;;5000061;28;20038;-75
2022/07/11 13:50:04;;;;;;;1.92;0.82;;;;;;;;;;5004419;28;20026;-76
2022/07/11 13:52:31;;;;;;;3.72;1.13;;;;;;;;;;5005127;28;20113;-75
2022/07/11 13:54:58;;;;;;;2.15;1.15;;;;;;;;;;5004574;28;20078;-75
2022/07/11 13:57:24;;;;;;;4.97;1.25;;;;;;;;;;5007612;28;20053;-75
2022/07/11 13:59:51;;;;;;;2.85;1.00;;;;;;;;;;5005671;28;20333;-76
2022/07/11 14:02:17;;;;;;;2.50;1.00;;;;;;;;;;5009299;28;20037;-76
2022/07/11 14:04:46;;;;;;;4.43;1.20;;;;;;;;;;5004721;28;20072;-77
2022/07/11 14:07:29;;;;;;;1.88;0.80;;;;;;;;;;5004509;28;20064;-75
2022/07/11 14:09:56;;;;;;;2.65;1.23;;;;;;;;;;5021468;28;20041;-77
2022/07/11 14:12:22;;;;;;;4.20;0.88;;;;;;;;;;5022631;28;21045;-76
2022/07/11 14:14:47;;;;;;;8.38;1.30;;;;;;;;;;5004384;28;20426;-75
2022/07/11 14:17:13;;;;;;;4.20;1.50;;;;;;;;;;5007800;28;20689;-77
2022/07/11 14:19:40;;;;;;;3.08;1.40;;;;;;;;;;5006034;28;20112;-76
2022/07/11 14:22:06;;;;;;;2.22;1.00;;;;;;;;;;5005228;28;20338;-76
2022/07/11 14:24:35;;;;;;;3.42;1.00;;;;;;;;;;5006801;28;20148;-76
2022/07/11 14:27:02;;;;;;;3.67;0.82;;;;;;;;;;5004182;28;20058;-75
2022/07/11 14:29:28;;;;;;;2.45;0.70;;;;;;;;;;5019920;28;20789;-77
2022/07/11 14:31:54;;;;;;;3.22;1.30;;;;;;;;;;5002824;28;20034;-76
2022/07/11 14:34:26;;;;;;;3.42;1.50;;;;;;;;;;5007597;28;20455;-76
2022/07/11 14:36:52;;;;;;;3.45;1.20;;;;;;;;;;5005242;28;20103;-75
2022/07/11 14:39:18;;;;;;;4.47;2.00;;;;;;;;;;4999341;28;20041;-75
2022/07/11 14:41:47;;;;;;;5.78;1.70;;;;;;;;;;4980528;28;20034;-76
2022/07/11 14:44:13;;;;;;;2.20;1.08;;;;;;;;;;5003737;28;20046;-75
2022/07/11 14:46:39;;;;;;;17.42;3.80;;;;;;;;;;5001377;28;20041;-75
2022/07/11 14:49:05;;;;;;;9.50;2.20;;;;;;;;;;5007373;28;20034;-75
2022/07/11 14:51:32;;;;;;;2.83;1.58;;;;;;;;;;5004626;28;20117;-75
2022/07/11 14:53:58;;;;;;;5.03;1.30;;;;;;;;;;5006256;28;20029;-76
2022/07/11 14:56:24;;;;;;;4.13;1.33;;;;;;;;;;5001084;28;20040;-77
2022/07/11 14:58:49;;;;;;;3.90;1.60;;;;;;;;;;5000439;28;20470;-77
2022/07/11 15:01:16;;;;;;;3.58;0.95;;;;;;;;;;5005807;28;20409;-77
2022/07/11 15:03:45;;;;;;;4.47;0.90;;;;;;;;;;5003963;28;20033;-75
2022/07/11 15:06:13;;;;;;;4.70;0.77;;;;;;;;;;5019437;28;20370;-76